createdAt,value
2018-12-11T00:00:50.383Z,3.38
2018-12-11T00:15:50.820Z,3.44
2018-12-11T00:30:51.124Z,3.55
2018-12-11T00:45:51.142Z,3.56
2018-12-11T01:00:53.323Z,3.45
2018-12-11T01:15:50.942Z,3.30
2018-12-11T01:30:53.423Z,3.18
2018-12-11T01:45:53.326Z,3.08
2018-12-11T02:00:53.315Z,2.99
2018-12-11T02:15:53.369Z,2.93
2018-12-11T02:30:51.173Z,2.93
2018-12-11T02:45:51.471Z,2.98
2018-12-11T03:00:51.441Z,2.92
2018-12-11T03:15:51.309Z,2.84
2018-12-11T03:30:50.895Z,2.71
2018-12-11T03:45:51.733Z,2.60
2018-12-11T04:00:51.704Z,2.45
2018-12-11T04:15:58.173Z,2.50
2018-12-11T04:30:51.838Z,2.38
2018-12-11T04:45:52.439Z,2.27
2018-12-11T05:00:51.412Z,2.24
2018-12-11T05:15:52.309Z,2.19
2018-12-11T05:30:53.771Z,2.17
2018-12-11T05:45:51.194Z,2.17
2018-12-11T06:00:50.856Z,2.45
2018-12-11T06:15:51.024Z,2.71
2018-12-11T06:30:50.686Z,2.87
2018-12-11T06:45:51.185Z,2.95
2018-12-11T07:00:50.477Z,3.14
2018-12-11T07:15:51.017Z,3.46
2018-12-11T07:30:50.976Z,4.02
2018-12-11T07:45:50.830Z,4.76
2018-12-11T08:00:52.731Z,6.10
2018-12-11T08:15:51.842Z,7.29
2018-12-11T08:30:53.066Z,8.58
2018-12-11T08:45:51.535Z,9.25
2018-12-11T09:00:51.557Z,8.38
2018-12-11T09:15:51.273Z,7.42
2018-12-11T09:30:51.345Z,7.81
2018-12-11T09:45:51.519Z,7.18
2018-12-11T10:00:50.649Z,9.07
2018-12-11T10:15:51.571Z,8.08
2018-12-11T10:30:51.478Z,7.62
2018-12-11T10:45:52.835Z,7.06
2018-12-11T11:00:55.877Z,6.14
2018-12-11T11:15:52.758Z,5.97
2018-12-11T11:30:50.764Z,5.50
2018-12-11T11:45:51.189Z,4.92
2018-12-11T12:00:51.039Z,4.58
2018-12-11T12:15:50.969Z,4.36
2018-12-11T12:30:51.909Z,4.32
2018-12-11T12:45:51.254Z,4.17
2018-12-11T13:00:50.721Z,3.87
2018-12-11T13:15:53.158Z,3.66
2018-12-11T13:30:51.493Z,3.55
2018-12-11T13:45:50.890Z,3.51
2018-12-11T14:00:51.144Z,3.52
2018-12-11T14:15:51.302Z,6.47
2018-12-11T14:30:51.237Z,4.55
2018-12-11T14:45:50.632Z,3.83
2018-12-11T15:00:51.563Z,3.33
2018-12-11T15:15:50.535Z,2.98
2018-12-11T15:45:52.425Z,2.31
2018-12-11T16:00:50.841Z,2.19
2018-12-11T16:15:50.796Z,2.12
2018-12-11T16:30:50.746Z,2.03
2018-12-11T16:45:51.215Z,1.95
2018-12-11T17:00:58.359Z,1.92
2018-12-11T17:15:50.990Z,1.91
2018-12-11T17:30:52.364Z,1.90
2018-12-11T17:45:51.258Z,1.86
2018-12-11T18:00:51.242Z,1.77
2018-12-11T18:15:51.221Z,1.76
2018-12-11T18:30:50.604Z,1.80
2018-12-11T18:45:51.493Z,1.79
2018-12-11T19:15:56.484Z,1.84
2018-12-11T19:45:52.198Z,1.73
2018-12-11T20:00:52.081Z,1.69
2018-12-11T20:15:51.839Z,1.63
2018-12-11T20:30:51.599Z,1.55
2018-12-11T20:45:51.062Z,1.49
2018-12-11T21:00:51.840Z,1.45
2018-12-11T21:15:51.329Z,1.48
2018-12-11T21:30:52.773Z,1.52
2018-12-11T21:45:50.721Z,1.71
2018-12-11T22:00:51.199Z,1.91
2018-12-11T22:15:53.588Z,2.11
2018-12-11T22:30:50.936Z,2.23
2018-12-11T22:45:53.891Z,2.31
2018-12-11T23:00:53.329Z,2.37
2018-12-11T23:15:51.253Z,2.39
2018-12-11T23:30:51.161Z,2.45
2018-12-11T23:45:53.538Z,2.52
